createdAt,value
2022-09-09T00:00:16.683Z,26.50
2022-09-09T00:05:27.555Z,25.70
2022-09-09T00:08:02.163Z,26.40
2022-09-09T00:10:34.903Z,25.80
2022-09-09T00:13:17.223Z,26.20
2022-09-09T00:15:56.256Z,26.00
2022-09-09T00:18:30.978Z,25.80
2022-09-09T00:21:08.574Z,26.50
2022-09-09T00:23:40.276Z,26.60
2022-09-09T00:26:16.159Z,26.20
2022-09-09T00:28:53.584Z,25.60
2022-09-09T00:31:27.334Z,26.50
2022-09-09T00:33:57.374Z,25.70
2022-09-09T00:36:30.080Z,26.00
2022-09-09T00:39:01.849Z,25.90
2022-09-09T00:41:45.905Z,25.90
2022-09-09T00:44:27.995Z,25.20
2022-09-09T00:47:27.030Z,25.20
2022-09-09T00:50:03.426Z,25.40
2022-09-09T00:52:42.035Z,25.50
2022-09-09T00:55:19.963Z,25.90
2022-09-09T00:57:54.004Z,25.50
2022-09-09T01:00:25.644Z,26.50
2022-09-09T01:03:09.764Z,25.50
2022-09-09T01:05:47.172Z,25.50
2022-09-09T01:08:32.519Z,25.10
2022-09-09T01:11:01.598Z,25.30
2022-09-09T01:13:32.037Z,26.30
2022-09-09T01:16:03.633Z,26.60
2022-09-09T01:18:36.605Z,25.30
2022-09-09T01:21:11.779Z,26.30
2022-09-09T01:24:03.424Z,25.40
2022-09-09T01:26:36.156Z,25.70
2022-09-09T01:31:38.496Z,25.70
2022-09-09T01:34:12.530Z,26.20
2022-09-09T01:36:45.723Z,25.70
2022-09-09T01:39:14.908Z,25.50
2022-09-09T01:41:44.773Z,25.30
2022-09-09T01:44:14.472Z,26.50
2022-09-09T01:51:42.895Z,26.10
2022-09-09T01:56:53.176Z,25.60
2022-09-09T01:59:33.137Z,25.10
2022-09-09T02:02:12.049Z,25.30
2022-09-09T02:04:43.245Z,25.50
2022-09-09T02:07:24.156Z,25.20
2022-09-09T02:09:59.363Z,25.00
2022-09-09T02:12:32.248Z,25.10
2022-09-09T02:15:06.062Z,26.30
2022-09-09T02:17:40.781Z,25.20
2022-09-09T02:20:12.319Z,26.10
2022-09-09T02:22:43.699Z,25.00
2022-09-09T02:25:15.613Z,25.00
2022-09-09T02:27:47.923Z,25.00
2022-09-09T02:35:17.113Z,25.30
2022-09-09T02:37:48.142Z,26.00
2022-09-09T02:42:48.960Z,25.20
2022-09-09T02:45:19.723Z,25.00
2022-09-09T02:47:56.501Z,24.80
2022-09-09T02:50:30.488Z,26.20
2022-09-09T02:53:09.241Z,25.10
2022-09-09T02:55:43.313Z,24.70
2022-09-09T02:58:17.905Z,25.70
2022-09-09T03:00:49.012Z,25.20
2022-09-09T03:03:18.347Z,26.00
2022-09-09T03:05:46.730Z,25.80
2022-09-09T03:13:16.120Z,25.10
2022-09-09T03:25:49.970Z,26.10
2022-09-09T03:28:19.553Z,25.50
2022-09-09T03:48:20.092Z,24.90
2022-09-09T03:53:17.965Z,25.70
2022-09-09T03:58:15.863Z,25.80
2022-09-09T04:00:46.235Z,25.30
2022-09-09T04:03:14.486Z,25.40
2022-09-09T04:05:43.410Z,25.40
2022-09-09T04:08:12.463Z,25.30
2022-09-09T04:10:40.573Z,25.30
2022-09-09T04:13:08.648Z,25.40
2022-09-09T04:15:37.706Z,25.40
2022-09-09T04:18:07.428Z,25.40
2022-09-09T04:20:35.328Z,25.40
2022-09-09T04:23:04.518Z,25.50
2022-09-09T04:25:32.639Z,25.50
2022-09-09T04:28:00.785Z,25.40
2022-09-09T04:30:29.520Z,25.50
2022-09-09T04:32:59.609Z,25.50
2022-09-09T04:35:29.260Z,25.50
2022-09-09T04:37:57.353Z,25.40
2022-09-09T04:40:25.893Z,25.50
2022-09-09T04:42:54.193Z,25.50
2022-09-09T04:45:22.321Z,25.50
2022-09-09T04:47:50.485Z,25.50
2022-09-09T04:50:18.706Z,25.40
2022-09-09T04:52:48.346Z,25.40
2022-09-09T04:55:16.644Z,25.40
2022-09-09T04:57:44.808Z,25.50
2022-09-09T05:00:14.198Z,25.50
2022-09-09T05:02:43.603Z,25.50
2022-09-09T05:05:12.195Z,25.30
2022-09-09T05:07:40.301Z,25.10
2022-09-09T05:10:11.529Z,25.00
2022-09-09T05:12:39.636Z,24.90
2022-09-09T05:15:08.974Z,24.90
2022-09-09T05:17:37.536Z,24.90
2022-09-09T05:20:09.673Z,24.90
2022-09-09T05:22:38.847Z,24.90
2022-09-09T05:25:07.418Z,25.00
2022-09-09T05:27:38.578Z,25.00
2022-09-09T05:30:07.456Z,25.00
2022-09-09T05:32:35.558Z,25.10
2022-09-09T05:35:03.747Z,25.10
2022-09-09T05:37:33.336Z,25.00
2022-09-09T05:40:01.839Z,24.90
2022-09-09T05:42:33.568Z,24.70
2022-09-09T05:45:03.561Z,24.60
2022-09-09T05:47:31.689Z,24.60
2022-09-09T05:49:59.764Z,24.50
2022-09-09T05:52:28.221Z,24.50
2022-09-09T05:54:57.980Z,24.50
2022-09-09T05:57:26.266Z,24.50
2022-09-09T05:59:54.752Z,24.40
2022-09-09T06:02:24.349Z,24.40
2022-09-09T06:04:52.768Z,24.40
2022-09-09T06:07:21.161Z,24.40
2022-09-09T06:09:49.372Z,24.50
2022-09-09T06:12:17.488Z,24.50
2022-09-09T06:14:46.547Z,24.60
2022-09-09T06:17:15.340Z,24.70
2022-09-09T06:19:44.932Z,24.70
2022-09-09T06:22:14.338Z,24.60
2022-09-09T06:24:43.344Z,24.60
2022-09-09T06:27:11.805Z,24.50
2022-09-09T06:29:40.122Z,24.50
2022-09-09T06:32:09.688Z,24.50
2022-09-09T06:34:38.012Z,24.60
2022-09-09T06:37:09.943Z,24.70
2022-09-09T06:39:38.204Z,24.80
2022-09-09T06:42:08.267Z,24.90
2022-09-09T06:44:37.414Z,25.00
2022-09-09T06:47:06.343Z,25.00
2022-09-09T06:49:36.025Z,25.10
2022-09-09T06:52:05.408Z,25.20
2022-09-09T06:54:37.909Z,25.30
2022-09-09T06:57:33.684Z,25.40
2022-09-09T06:59:57.357Z,25.40
2022-09-09T07:02:25.990Z,25.50
2022-09-09T07:04:54.510Z,25.60
2022-09-09T07:07:22.961Z,25.70
2022-09-09T07:09:52.500Z,25.80
2022-09-09T07:12:20.733Z,26.00
2022-09-09T07:14:48.799Z,26.00
2022-09-09T07:17:16.913Z,26.00
2022-09-09T07:19:45.300Z,26.00
2022-09-09T07:22:13.417Z,25.90
2022-09-09T07:24:41.523Z,25.90
2022-09-09T07:27:11.028Z,26.00
2022-09-09T07:29:39.432Z,26.10
2022-09-09T07:32:07.893Z,26.30
2022-09-09T07:34:36.060Z,26.50
2022-09-09T07:37:04.504Z,26.70
2022-09-09T07:39:32.634Z,27.60
2022-09-09T07:42:00.737Z,27.00
2022-09-09T07:44:30.293Z,27.10
2022-09-09T07:46:58.467Z,27.30
2022-09-09T07:49:32.138Z,27.50
2022-09-09T07:52:01.006Z,27.40
2022-09-09T07:54:29.340Z,27.20
2022-09-09T07:56:57.437Z,27.10
2022-09-09T07:59:25.648Z,27.00
2022-09-09T08:01:55.859Z,26.90
2022-09-09T08:04:26.296Z,27.10
2022-09-09T08:06:56.635Z,27.00
2022-09-09T08:09:28.027Z,26.90
2022-09-09T08:11:57.391Z,27.20
2022-09-09T08:14:26.197Z,28.10
2022-09-09T08:16:55.847Z,28.20
2022-09-09T08:19:24.545Z,28.20
2022-09-09T08:21:52.631Z,27.90
2022-09-09T08:24:20.977Z,27.80
2022-09-09T08:26:50.623Z,27.80
2022-09-09T08:29:19.096Z,27.80
2022-09-09T08:31:49.285Z,27.80
2022-09-09T08:34:21.545Z,27.70
2022-09-09T08:36:51.021Z,27.50
2022-09-09T08:39:21.224Z,27.40
2022-09-09T08:42:13.025Z,27.70
2022-09-09T08:45:02.496Z,28.10
2022-09-09T08:47:39.507Z,28.50
2022-09-09T08:50:20.901Z,29.20
2022-09-09T08:52:56.997Z,29.70
2022-09-09T08:55:30.936Z,29.80
2022-09-09T08:58:03.232Z,29.30
2022-09-09T09:00:42.066Z,29.10
2022-09-09T09:03:21.697Z,29.10
2022-09-09T09:05:55.436Z,29.10
2022-09-09T09:08:29.872Z,28.80
2022-09-09T09:11:01.420Z,28.50
2022-09-09T09:13:39.291Z,28.50
2022-09-09T09:16:18.837Z,28.40
2022-09-09T09:18:47.205Z,28.20
2022-09-09T09:21:21.546Z,28.20
2022-09-09T09:23:56.913Z,28.00
2022-09-09T09:26:28.455Z,27.70
2022-09-09T09:29:00.375Z,27.70
2022-09-09T09:31:28.970Z,27.50
2022-09-09T09:33:59.294Z,27.40
2022-09-09T09:36:37.851Z,27.40
2022-09-09T09:41:55.762Z,27.30
2022-09-09T09:44:29.428Z,27.20
2022-09-09T09:47:09.265Z,27.70
2022-09-09T09:49:37.902Z,28.60
2022-09-09T09:52:08.735Z,29.60
2022-09-09T09:54:41.502Z,30.90
2022-09-09T09:57:12.121Z,30.90
2022-09-09T09:59:41.518Z,31.10
2022-09-09T10:02:16.560Z,31.10
2022-09-09T10:04:46.365Z,31.10
2022-09-09T10:07:20.427Z,31.30
2022-09-09T10:09:54.008Z,31.30
2022-09-09T10:12:32.991Z,31.40
2022-09-09T10:15:08.056Z,31.50
2022-09-09T10:17:44.590Z,31.50
2022-09-09T10:20:31.484Z,31.80
2022-09-09T10:23:09.658Z,32.00
2022-09-09T10:25:57.716Z,32.10
2022-09-09T10:28:56.564Z,33.00
2022-09-09T10:31:33.758Z,33.70
2022-09-09T10:34:18.537Z,33.80
2022-09-09T10:36:51.451Z,33.70
2022-09-09T10:39:40.522Z,33.50
2022-09-09T10:42:14.410Z,33.40
2022-09-09T10:44:56.713Z,33.90
2022-09-09T10:47:40.110Z,33.90
2022-09-09T10:51:00.015Z,34.90
2022-09-09T10:53:34.196Z,35.10
2022-09-09T10:56:08.177Z,34.10
2022-09-09T10:58:46.676Z,33.10
2022-09-09T11:01:20.460Z,31.10
2022-09-09T11:03:56.448Z,31.10
2022-09-09T11:06:33.753Z,29.80
2022-09-09T11:09:06.162Z,30.40
2022-09-09T11:11:41.376Z,29.90
2022-09-09T11:14:17.264Z,31.10
2022-09-09T11:16:51.771Z,30.60
2022-09-09T11:19:27.240Z,31.30
2022-09-09T11:21:55.905Z,31.00
2022-09-09T11:24:28.617Z,31.30
2022-09-09T11:27:03.977Z,33.10
2022-09-09T11:30:05.513Z,33.00
2022-09-09T11:33:01.407Z,34.20
2022-09-09T11:35:41.053Z,35.00
2022-09-09T11:38:21.109Z,35.20
2022-09-09T11:40:56.259Z,35.50
2022-09-09T11:43:29.172Z,35.90
2022-09-09T11:46:01.191Z,36.30
2022-09-09T11:48:34.447Z,36.40
2022-09-09T11:51:10.056Z,36.70
2022-09-09T11:53:51.005Z,37.20
2022-09-09T11:56:28.768Z,36.60
2022-09-09T11:59:03.072Z,35.40
2022-09-09T12:01:43.962Z,34.30
2022-09-09T12:04:34.117Z,33.70
2022-09-09T12:07:05.212Z,33.30
2022-09-09T12:09:52.885Z,32.60
2022-09-09T12:12:27.775Z,31.40
2022-09-09T12:15:16.453Z,31.00
2022-09-09T12:17:46.423Z,31.50
2022-09-09T12:20:17.266Z,30.70
2022-09-09T12:23:24.865Z,30.20
2022-09-09T12:26:03.198Z,30.30
2022-09-09T12:28:46.592Z,30.10
2022-09-09T12:31:23.024Z,29.70
2022-09-09T12:33:53.548Z,29.60
2022-09-09T12:36:24.470Z,29.20
2022-09-09T12:38:53.302Z,30.30
2022-09-09T12:41:23.047Z,31.60
2022-09-09T12:43:52.092Z,32.20
2022-09-09T12:46:41.567Z,32.40
2022-09-09T12:49:28.880Z,32.70
2022-09-09T12:51:58.351Z,34.00
2022-09-09T12:54:26.715Z,35.10
2022-09-09T12:56:54.921Z,36.10
2022-09-09T12:59:28.086Z,35.10
2022-09-09T13:02:01.005Z,35.40
2022-09-09T13:04:29.290Z,35.80
2022-09-09T13:07:12.530Z,35.60
2022-09-09T13:09:40.912Z,34.80
2022-09-09T13:12:15.476Z,35.80
2022-09-09T13:14:47.673Z,35.20
2022-09-09T13:17:24.012Z,35.90
2022-09-09T13:19:53.989Z,35.90
2022-09-09T13:22:33.507Z,35.70
2022-09-09T13:25:08.186Z,35.00
2022-09-09T13:27:40.630Z,34.70
2022-09-09T13:30:24.963Z,34.00
2022-09-09T13:33:22.553Z,33.60
2022-09-09T13:35:54.132Z,33.10
2022-09-09T13:38:27.517Z,33.10
2022-09-09T13:41:02.899Z,34.00
2022-09-09T13:43:33.935Z,35.00
2022-09-09T13:46:04.100Z,35.50
2022-09-09T13:48:33.672Z,34.80
2022-09-09T13:51:06.115Z,36.10
2022-09-09T13:53:34.336Z,35.20
2022-09-09T13:56:03.663Z,34.90
2022-09-09T13:58:31.576Z,34.80
2022-09-09T14:00:59.690Z,33.20
2022-09-09T14:05:58.149Z,32.00
2022-09-09T14:08:29.456Z,31.90
2022-09-09T14:10:59.348Z,32.70
2022-09-09T14:18:26.421Z,31.60
2022-09-09T14:20:54.871Z,32.60
2022-09-09T14:23:25.387Z,32.10
2022-09-09T14:25:54.020Z,32.60
2022-09-09T14:28:34.248Z,33.70
2022-09-09T14:31:11.771Z,34.20
2022-09-09T14:33:39.941Z,33.90
2022-09-09T14:36:08.444Z,34.40
2022-09-09T14:38:40.630Z,35.40
2022-09-09T14:41:08.977Z,34.40
2022-09-09T14:43:37.114Z,33.50
2022-09-09T14:46:08.805Z,33.60
2022-09-09T14:48:37.524Z,32.60
2022-09-09T14:51:10.230Z,33.20
2022-09-09T14:53:39.735Z,32.20
2022-09-09T14:56:09.901Z,31.90
2022-09-09T14:58:38.977Z,31.70
2022-09-09T15:01:08.637Z,31.50
2022-09-09T15:03:37.755Z,31.10
2022-09-09T15:06:10.375Z,31.90
2022-09-09T15:08:42.463Z,31.60
2022-09-09T15:11:12.367Z,31.90
2022-09-09T15:13:42.122Z,31.00
2022-09-09T15:16:12.508Z,30.30
2022-09-09T15:18:44.110Z,31.40
2022-09-09T15:21:12.813Z,30.60
2022-09-09T15:23:42.369Z,31.00
2022-09-09T15:26:11.323Z,30.50
2022-09-09T15:28:40.633Z,30.40
2022-09-09T15:31:11.972Z,30.20
2022-09-09T15:33:40.145Z,29.60
2022-09-09T15:36:19.185Z,30.20
2022-09-09T15:38:48.865Z,29.50
2022-09-09T15:41:18.172Z,29.00
2022-09-09T15:43:47.818Z,29.80
2022-09-09T15:46:28.338Z,29.40
2022-09-09T15:48:57.597Z,29.30
2022-09-09T15:51:43.967Z,30.10
2022-09-09T15:54:15.391Z,29.50
2022-09-09T15:56:43.985Z,29.40
2022-09-09T15:59:12.555Z,29.90
2022-09-09T16:01:41.862Z,29.90
2022-09-09T16:04:11.347Z,29.30
2022-09-09T16:06:40.168Z,29.40
2022-09-09T16:09:11.020Z,29.40
2022-09-09T16:11:41.471Z,28.50
2022-09-09T16:14:09.797Z,28.60
2022-09-09T16:16:37.936Z,28.30
2022-09-09T16:19:08.032Z,27.50
2022-09-09T16:21:38.945Z,27.90
2022-09-09T16:24:09.875Z,27.80
2022-09-09T16:26:42.965Z,27.10
2022-09-09T16:29:11.056Z,27.30
2022-09-09T16:31:41.148Z,27.50
2022-09-09T16:34:09.584Z,28.30
2022-09-09T16:36:40.116Z,27.60
2022-09-09T16:39:10.248Z,27.70
2022-09-09T16:41:40.773Z,28.00
2022-09-09T16:44:10.180Z,27.10
2022-09-09T16:46:40.462Z,27.00
2022-09-09T16:49:10.288Z,27.60
2022-09-09T16:51:40.282Z,27.50
2022-09-09T16:54:10.430Z,27.10
2022-09-09T16:56:42.240Z,26.90
2022-09-09T16:59:12.681Z,26.90
2022-09-09T17:01:42.647Z,25.90
2022-09-09T17:04:14.229Z,27.00
2022-09-09T17:09:12.536Z,25.90
2022-09-09T17:11:42.478Z,25.80
2022-09-09T17:14:13.630Z,25.40
2022-09-09T17:16:42.017Z,25.50
2022-09-09T17:19:10.393Z,25.30
2022-09-09T17:21:54.465Z,24.10
2022-09-09T17:24:27.552Z,25.20
2022-09-09T17:26:57.167Z,25.20
2022-09-09T17:29:25.964Z,25.40
2022-09-09T17:31:54.250Z,25.10
2022-09-09T17:34:22.652Z,25.20
2022-09-09T17:36:51.082Z,25.40
2022-09-09T17:39:19.181Z,25.60
2022-09-09T17:44:17.178Z,25.10
2022-09-09T17:46:46.489Z,25.30
2022-09-09T17:49:16.524Z,25.20
2022-09-09T17:51:46.194Z,25.40
2022-09-09T17:54:17.306Z,25.00
2022-09-09T17:56:46.156Z,25.10
2022-09-09T17:59:17.589Z,24.90
2022-09-09T18:01:47.854Z,24.70
2022-09-09T18:04:17.738Z,25.00
2022-09-09T18:06:47.442Z,24.90
2022-09-09T18:09:16.587Z,25.00
2022-09-09T18:11:46.964Z,25.10
2022-09-09T18:14:18.547Z,24.80
2022-09-09T18:16:47.313Z,25.00
2022-09-09T18:19:17.486Z,24.80
2022-09-09T18:21:46.252Z,24.60
2022-09-09T18:24:17.437Z,24.50
2022-09-09T18:26:48.294Z,24.50
2022-09-09T18:29:21.088Z,24.50
2022-09-09T18:31:49.737Z,24.40
2022-09-09T18:34:20.195Z,24.40
2022-09-09T18:36:50.071Z,24.30
2022-09-09T18:39:19.182Z,24.30
2022-09-09T18:41:48.892Z,24.20
2022-09-09T18:44:21.711Z,24.20
2022-09-09T18:46:52.060Z,24.30
2022-09-09T18:49:21.161Z,24.40
2022-09-09T18:51:50.015Z,24.60
2022-09-09T18:54:20.637Z,24.70
2022-09-09T18:56:49.812Z,24.80
2022-09-09T18:59:20.974Z,24.90
2022-09-09T19:01:50.515Z,24.90
2022-09-09T19:04:19.815Z,25.00
2022-09-09T19:06:49.345Z,25.00
2022-09-09T19:09:18.885Z,25.00
2022-09-09T19:11:47.213Z,25.00
2022-09-09T19:14:19.137Z,25.00
2022-09-09T19:16:48.657Z,25.00
2022-09-09T19:19:18.691Z,25.00
2022-09-09T19:21:49.617Z,25.00
2022-09-09T19:24:19.952Z,25.00
2022-09-09T19:26:50.246Z,25.00
2022-09-09T19:29:22.485Z,25.00
2022-09-09T19:32:29.285Z,25.00
2022-09-09T19:34:40.398Z,25.00
2022-09-09T19:37:08.565Z,25.00
2022-09-09T19:39:36.720Z,25.00
2022-09-09T19:42:05.021Z,25.00
2022-09-09T19:44:34.481Z,25.00
2022-09-09T19:47:17.952Z,25.00
2022-09-09T19:49:47.569Z,25.00
2022-09-09T19:52:16.981Z,25.00
2022-09-09T19:54:45.177Z,25.00
2022-09-09T19:57:13.519Z,25.00
2022-09-09T19:59:43.258Z,25.00
2022-09-09T20:02:13.490Z,24.90
2022-09-09T20:04:41.705Z,24.90
2022-09-09T20:07:09.998Z,24.90
2022-09-09T20:09:38.067Z,24.80
2022-09-09T20:12:06.802Z,24.80
2022-09-09T20:14:39.174Z,24.80
2022-09-09T20:17:10.145Z,24.80
2022-09-09T20:19:39.666Z,24.80
2022-09-09T20:22:07.803Z,24.80
2022-09-09T20:24:37.013Z,24.80
2022-09-09T20:27:07.102Z,24.80
2022-09-09T20:29:35.244Z,24.60
2022-09-09T20:32:03.739Z,24.40
2022-09-09T20:34:33.223Z,24.20
2022-09-09T20:37:02.683Z,24.10
2022-09-09T20:39:30.791Z,23.90
2022-09-09T20:41:58.871Z,23.80
2022-09-09T20:44:26.984Z,23.90
2022-09-09T20:46:57.155Z,24.20
2022-09-09T20:49:25.740Z,24.40
2022-09-09T20:51:55.533Z,24.60
2022-09-09T20:54:25.932Z,24.60
2022-09-09T20:56:55.290Z,24.60
2022-09-09T20:59:25.270Z,24.60
2022-09-09T21:01:54.169Z,24.70
2022-09-09T21:04:23.588Z,24.70
2022-09-09T21:06:52.219Z,24.70
2022-09-09T21:09:23.163Z,24.70
2022-09-09T21:11:51.511Z,24.70
2022-09-09T21:14:19.604Z,24.70
2022-09-09T21:16:47.717Z,25.50
2022-09-09T21:19:15.919Z,24.70
2022-09-09T21:21:45.410Z,24.60
2022-09-09T21:24:14.124Z,24.70
2022-09-09T21:26:43.619Z,24.60
2022-09-09T21:29:13.163Z,24.60
2022-09-09T21:31:41.387Z,24.70
2022-09-09T21:34:09.830Z,24.70
2022-09-09T21:36:38.659Z,24.60
2022-09-09T21:39:06.752Z,24.60
2022-09-09T21:41:34.850Z,24.60
2022-09-09T21:44:04.612Z,24.70
2022-09-09T21:46:32.944Z,24.70
2022-09-09T21:49:03.515Z,24.60
2022-09-09T21:51:31.630Z,24.70
2022-09-09T21:53:59.732Z,25.40
2022-09-09T21:56:28.043Z,24.80
2022-09-09T21:58:57.641Z,24.50
2022-09-09T22:01:27.373Z,24.90
2022-09-09T22:03:55.318Z,24.90
2022-09-09T22:06:23.441Z,24.90
2022-09-09T22:08:51.843Z,24.90
2022-09-09T22:11:23.264Z,24.90
2022-09-09T22:13:53.218Z,24.90
2022-09-09T22:16:23.496Z,25.00
2022-09-09T22:18:54.358Z,25.00
2022-09-09T22:21:23.066Z,25.00
2022-09-09T22:23:54.519Z,25.00
2022-09-09T22:26:22.987Z,25.00
2022-09-09T22:28:51.820Z,25.00
2022-09-09T22:31:21.149Z,25.00
2022-09-09T22:33:49.308Z,25.10
2022-09-09T22:36:20.365Z,25.10
2022-09-09T22:38:48.991Z,25.10
2022-09-09T22:41:18.880Z,25.10
2022-09-09T22:43:47.845Z,25.10
2022-09-09T22:46:16.321Z,25.10
2022-09-09T22:48:44.448Z,25.10
2022-09-09T22:51:14.479Z,25.10
2022-09-09T22:53:45.693Z,25.10
2022-09-09T22:56:17.200Z,25.10
2022-09-09T22:58:46.128Z,25.10
2022-09-09T23:01:16.344Z,25.10
2022-09-09T23:03:46.500Z,25.20
2022-09-09T23:06:22.216Z,25.20
2022-09-09T23:08:55.870Z,25.20
2022-09-09T23:11:28.140Z,25.20
2022-09-09T23:13:58.016Z,25.20
2022-09-09T23:16:27.090Z,25.20
2022-09-09T23:18:56.123Z,25.20
2022-09-09T23:21:26.308Z,25.20
2022-09-09T23:23:57.557Z,25.10
2022-09-09T23:26:26.364Z,25.00
2022-09-09T23:28:58.301Z,24.90
2022-09-09T23:31:29.277Z,24.80
2022-09-09T23:33:58.147Z,24.70
2022-09-09T23:36:29.672Z,24.60
2022-09-09T23:39:02.066Z,24.60
2022-09-09T23:41:30.921Z,24.60
2022-09-09T23:43:59.356Z,24.50
2022-09-09T23:46:30.099Z,24.50
2022-09-09T23:48:59.241Z,24.50
2022-09-09T23:51:30.713Z,24.50
2022-09-09T23:54:03.004Z,24.40
2022-09-09T23:56:32.924Z,24.40
2022-09-09T23:59:01.045Z,24.40
